sensor_id;sensor_type;location;lat;lon;timestamp;pressure;altitude;pressure_sealevel;temperature;humidity
3960;BME280;1994;48.640;8.894;2023-05-11T00:02:08;95957.41;;;12.13;94.57
3960;BME280;1994;48.640;8.894;2023-05-11T00:04:34;95958.69;;;12.11;94.24
3960;BME280;1994;48.640;8.894;2023-05-11T00:06:59;95960.31;;;11.90;95.20
3960;BME280;1994;48.640;8.894;2023-05-11T00:09:25;95952.72;;;11.84;95.90
3960;BME280;1994;48.640;8.894;2023-05-11T00:11:52;95962.59;;;11.87;96.18
3960;BME280;1994;48.640;8.894;2023-05-11T00:14:19;95956.44;;;11.93;96.27
3960;BME280;1994;48.640;8.894;2023-05-11T00:16:44;95965.28;;;11.97;96.33
3960;BME280;1994;48.640;8.894;2023-05-11T00:19:10;95955.94;;;11.96;96.33
3960;BME280;1994;48.640;8.894;2023-05-11T00:21:36;95955.84;;;11.86;96.86
3960;BME280;1994;48.640;8.894;2023-05-11T00:24:02;95952.22;;;11.87;97.02
3960;BME280;1994;48.640;8.894;2023-05-11T00:26:28;95947.63;;;11.94;97.00
3960;BME280;1994;48.640;8.894;2023-05-11T00:28:54;95956.44;;;11.93;96.99
3960;BME280;1994;48.640;8.894;2023-05-11T00:31:19;95952.75;;;11.89;97.45
3960;BME280;1994;48.640;8.894;2023-05-11T00:33:45;95947.13;;;11.97;97.34
3960;BME280;1994;48.640;8.894;2023-05-11T00:36:11;95949.81;;;12.07;96.81
3960;BME280;1994;48.640;8.894;2023-05-11T00:38:37;95940.47;;;12.06;96.71
3960;BME280;1994;48.640;8.894;2023-05-11T00:41:07;95949.38;;;12.15;96.43
3960;BME280;1994;48.640;8.894;2023-05-11T00:43:33;95946.28;;;12.18;96.35
3960;BME280;1994;48.640;8.894;2023-05-11T00:46:00;95947.31;;;12.17;95.60
3960;BME280;1994;48.640;8.894;2023-05-11T00:48:26;95945.84;;;12.26;95.48
3960;BME280;1994;48.640;8.894;2023-05-11T00:50:52;95935.34;;;12.16;95.30
3960;BME280;1994;48.640;8.894;2023-05-11T00:53:19;95942.03;;;12.07;96.01
3960;BME280;1994;48.640;8.894;2023-05-11T00:55:45;95939.94;;;12.04;95.96
3960;BME280;1994;48.640;8.894;2023-05-11T00:58:11;95938.91;;;12.05;95.94
3960;BME280;1994;48.640;8.894;2023-05-11T01:00:37;95937.41;;;12.14;95.34
3960;BME280;1994;48.640;8.894;2023-05-11T01:03:03;95939.00;;;12.15;95.31
3960;BME280;1994;48.640;8.894;2023-05-11T01:08:41;95938.00;;;12.21;95.44
3960;BME280;1994;48.640;8.894;2023-05-11T01:11:36;95936.91;;;12.17;95.37
3960;BME280;1994;48.640;8.894;2023-05-11T01:16:41;95935.66;;;12.19;95.28
3960;BME280;1994;48.640;8.894;2023-05-11T01:19:38;95933.38;;;12.28;95.46
3960;BME280;1994;48.640;8.894;2023-05-11T01:25:23;95935.44;;;12.26;94.93
3960;BME280;1994;48.640;8.894;2023-05-11T01:31:09;95932.34;;;12.29;95.08
3960;BME280;1994;48.640;8.894;2023-05-11T01:33:46;95932.81;;;12.21;95.31
3960;BME280;1994;48.640;8.894;2023-05-11T01:36:15;95935.34;;;12.16;95.68
3960;BME280;1994;48.640;8.894;2023-05-11T01:38:46;95934.09;;;12.18;95.91
3960;BME280;1994;48.640;8.894;2023-05-11T01:41:17;95933.78;;;12.15;96.31
3960;BME280;1994;48.640;8.894;2023-05-11T01:43:52;95929.19;;;12.22;96.38
3960;BME280;1994;48.640;8.894;2023-05-11T01:46:20;95931.00;;;12.26;96.15
3960;BME280;1994;48.640;8.894;2023-05-11T01:48:48;95938.56;;;12.28;95.99
3960;BME280;1994;48.640;8.894;2023-05-11T01:51:17;95927.63;;;12.21;95.89
3960;BME280;1994;48.640;8.894;2023-05-11T01:53:44;95925.06;;;12.26;95.72
3960;BME280;1994;48.640;8.894;2023-05-11T01:56:11;95941.22;;;12.33;95.51
3960;BME280;1994;48.640;8.894;2023-05-11T01:58:40;95941.91;;;12.23;95.44
3960;BME280;1994;48.640;8.894;2023-05-11T02:01:06;95940.03;;;12.19;95.80
3960;BME280;1994;48.640;8.894;2023-05-11T02:03:35;95936.13;;;12.16;95.74
3960;BME280;1994;48.640;8.894;2023-05-11T02:06:04;95939.31;;;12.23;95.62
3960;BME280;1994;48.640;8.894;2023-05-11T02:08:31;95945.31;;;12.29;95.47
3960;BME280;1994;48.640;8.894;2023-05-11T02:10:58;95939.56;;;12.22;95.54
3960;BME280;1994;48.640;8.894;2023-05-11T02:13:25;95943.25;;;12.26;95.35
3960;BME280;1994;48.640;8.894;2023-05-11T02:15:56;95935.50;;;12.31;95.15
3960;BME280;1994;48.640;8.894;2023-05-11T02:18:23;95940.63;;;12.26;95.42
3960;BME280;1994;48.640;8.894;2023-05-11T02:20:49;95944.25;;;12.25;95.39
3960;BME280;1994;48.640;8.894;2023-05-11T02:23:16;95943.97;;;12.21;95.44
3960;BME280;1994;48.640;8.894;2023-05-11T02:25:43;95940.63;;;12.26;95.42
3960;BME280;1994;48.640;8.894;2023-05-11T02:28:09;95945.22;;;12.19;95.58
3960;BME280;1994;48.640;8.894;2023-05-11T02:30:43;95942.41;;;12.20;95.64
3960;BME280;1994;48.640;8.894;2023-05-11T02:33:16;95945.69;;;12.11;95.96
3960;BME280;1994;48.640;8.894;2023-05-11T02:35:44;95946.22;;;12.13;96.43
3960;BME280;1994;48.640;8.894;2023-05-11T02:38:11;95940.03;;;12.19;96.40
3960;BME280;1994;48.640;8.894;2023-05-11T02:40:48;95947.31;;;12.17;96.11
3960;BME280;1994;48.640;8.894;2023-05-11T02:43:21;95939.56;;;11.95;96.60
3960;BME280;1994;48.640;8.894;2023-05-11T02:45:52;95941.94;;;11.97;96.57
3960;BME280;1994;48.640;8.894;2023-05-11T02:48:26;95942.53;;;12.04;96.52
3960;BME280;1994;48.640;8.894;2023-05-11T02:50:54;95943.47;;;11.93;97.18
3960;BME280;1994;48.640;8.894;2023-05-11T02:53:27;95939.84;;;11.94;97.01
3960;BME280;1994;48.640;8.894;2023-05-11T02:55:54;95935.69;;;11.93;97.14
3960;BME280;1994;48.640;8.894;2023-05-11T02:58:21;95939.75;;;11.84;97.92
3960;BME280;1994;48.640;8.894;2023-05-11T03:00:47;95942.63;;;11.87;97.55
3960;BME280;1994;48.640;8.894;2023-05-11T03:03:13;95939.97;;;11.82;97.82
3960;BME280;1994;48.640;8.894;2023-05-11T03:05:39;95937.09;;;11.79;97.90
3960;BME280;1994;48.640;8.894;2023-05-11T03:08:04;95938.59;;;11.75;98.76
3960;BME280;1994;48.640;8.894;2023-05-11T03:10:30;95938.50;;;11.65;99.37
3960;BME280;1994;48.640;8.894;2023-05-11T03:12:56;95935.47;;;11.73;99.10
3960;BME280;1994;48.640;8.894;2023-05-11T03:15:23;95932.09;;;11.72;99.12
3960;BME280;1994;48.640;8.894;2023-05-11T03:17:50;95925.03;;;11.68;99.49
3960;BME280;1994;48.640;8.894;2023-05-11T03:20:18;95938.13;;;11.78;99.51
3960;BME280;1994;48.640;8.894;2023-05-11T03:22:45;95938.13;;;11.78;99.18
3960;BME280;1994;48.640;8.894;2023-05-11T03:25:11;95926.72;;;11.79;99.09
3960;BME280;1994;48.640;8.894;2023-05-11T03:27:40;95936.06;;;11.80;99.31
3960;BME280;1994;48.640;8.894;2023-05-11T03:30:08;95928.50;;;11.78;99.20
3960;BME280;1994;48.640;8.894;2023-05-11T03:32:35;95928.31;;;11.85;99.12
3960;BME280;1994;48.640;8.894;2023-05-11T03:35:01;95925.78;;;11.90;98.99
3960;BME280;1994;48.640;8.894;2023-05-11T03:37:29;95921.00;;;11.77;99.29
3960;BME280;1994;48.640;8.894;2023-05-11T03:39:58;95926.25;;;11.87;99.08
3960;BME280;1994;48.640;8.894;2023-05-11T03:42:25;95924.69;;;11.86;99.16
3960;BME280;1994;48.640;8.894;2023-05-11T03:44:54;95917.53;;;11.98;98.53
3960;BME280;1994;48.640;8.894;2023-05-11T03:47:24;95914.91;;;11.93;98.65
3960;BME280;1994;48.640;8.894;2023-05-11T03:49:51;95916.44;;;11.89;98.31
3960;BME280;1994;48.640;8.894;2023-05-11T03:52:18;95912.84;;;11.95;98.19
3960;BME280;1994;48.640;8.894;2023-05-11T03:54:45;95924.69;;;11.86;97.92
3960;BME280;1994;48.640;8.894;2023-05-11T03:57:13;95918.44;;;11.82;98.73
3960;BME280;1994;48.640;8.894;2023-05-11T03:59:38;95912.28;;;11.88;98.73
3960;BME280;1994;48.640;8.894;2023-05-11T04:02:04;95918.03;;;11.95;98.48
3960;BME280;1994;48.640;8.894;2023-05-11T04:04:31;95905.53;;;11.92;98.01
3960;BME280;1994;48.640;8.894;2023-05-11T04:06:57;95909.63;;;11.83;98.45
3960;BME280;1994;48.640;8.894;2023-05-11T04:09:23;95913.91;;;11.72;98.91
3960;BME280;1994;48.640;8.894;2023-05-11T04:11:50;95915.69;;;11.67;99.19
3960;BME280;1994;48.640;8.894;2023-05-11T04:14:16;95914.53;;;11.79;98.66
3960;BME280;1994;48.640;8.894;2023-05-11T04:16:43;95910.47;;;11.62;99.56
3960;BME280;1994;48.640;8.894;2023-05-11T04:19:08;95908.44;;;11.69;99.54
3960;BME280;1994;48.640;8.894;2023-05-11T04:21:34;95910.38;;;11.57;99.99
3960;BME280;1994;48.640;8.894;2023-05-11T04:24:03;95908.44;;;11.69;99.88
3960;BME280;1994;48.640;8.894;2023-05-11T04:26:29;95907.47;;;11.75;99.17
3960;BME280;1994;48.640;8.894;2023-05-11T04:28:55;95911.53;;;11.66;100.00
3960;BME280;1994;48.640;8.894;2023-05-11T04:31:20;95917.78;;;11.70;100.00
3960;BME280;1994;48.640;8.894;2023-05-11T04:33:46;95916.84;;;11.81;100.00
3960;BME280;1994;48.640;8.894;2023-05-11T04:36:12;95919.97;;;11.78;100.00
3960;BME280;1994;48.640;8.894;2023-05-11T04:38:37;95920.00;;;11.83;100.00
3960;BME280;1994;48.640;8.894;2023-05-11T04:41:07;95915.88;;;11.87;99.89
3960;BME280;1994;48.640;8.894;2023-05-11T04:43:34;95922.59;;;11.83;99.87
3960;BME280;1994;48.640;8.894;2023-05-11T04:46:00;95919.72;;;11.79;100.00
3960;BME280;1994;48.640;8.894;2023-05-11T04:48:26;95915.88;;;11.87;99.73
3960;BME280;1994;48.640;8.894;2023-05-11T04:50:53;95927.84;;;11.88;99.77
3960;BME280;1994;48.640;8.894;2023-05-11T04:53:19;95925.31;;;11.93;99.37
3960;BME280;1994;48.640;8.894;2023-05-11T04:55:45;95921.66;;;11.94;99.72
3960;BME280;1994;48.640;8.894;2023-05-11T04:58:10;95918.50;;;11.92;99.47
3960;BME280;1994;48.640;8.894;2023-05-11T05:00:36;95917.41;;;11.83;99.89
3960;BME280;1994;48.640;8.894;2023-05-11T05:03:02;95924.59;;;11.76;99.98
3960;BME280;1994;48.640;8.894;2023-05-11T05:05:28;95919.91;;;11.73;100.00
3960;BME280;1994;48.640;8.894;2023-05-11T05:07:54;95929.13;;;11.85;100.00
3960;BME280;1994;48.640;8.894;2023-05-11T05:10:19;95924.69;;;11.86;99.71
3960;BME280;1994;48.640;8.894;2023-05-11T05:12:46;95931.44;;;11.87;99.82
3960;BME280;1994;48.640;8.894;2023-05-11T05:15:13;95925.38;;;12.03;99.76
3960;BME280;1994;48.640;8.894;2023-05-11T05:17:38;95917.53;;;11.98;98.82
3960;BME280;1994;48.640;8.894;2023-05-11T05:20:06;95923.03;;;11.75;100.00
3960;BME280;1994;48.640;8.894;2023-05-11T05:22:33;95921.28;;;11.80;100.00
3960;BME280;1994;48.640;8.894;2023-05-11T05:24:59;95931.50;;;11.92;100.00
3960;BME280;1994;48.640;8.894;2023-05-11T05:27:24;95921.16;;;11.97;100.00
3960;BME280;1994;48.640;8.894;2023-05-11T05:29:50;95932.81;;;11.94;100.00
3960;BME280;1994;48.640;8.894;2023-05-11T05:32:16;95933.50;;;11.85;100.00
3960;BME280;1994;48.640;8.894;2023-05-11T05:34:42;95929.50;;;11.99;100.00
3960;BME280;1994;48.640;8.894;2023-05-11T05:37:08;95933.09;;;11.93;99.91
3960;BME280;1994;48.640;8.894;2023-05-11T05:39:34;95929.97;;;11.96;99.70
3960;BME280;1994;48.640;8.894;2023-05-11T05:42:00;95929.50;;;11.99;99.52
3960;BME280;1994;48.640;8.894;2023-05-11T05:44:27;95935.25;;;12.06;99.37
3960;BME280;1994;48.640;8.894;2023-05-11T05:46:53;95933.72;;;12.05;99.42
3960;BME280;1994;48.640;8.894;2023-05-11T05:49:19;95931.88;;;12.05;99.21
3960;BME280;1994;48.640;8.894;2023-05-11T05:51:45;95936.81;;;12.07;99.45
3960;BME280;1994;48.640;8.894;2023-05-11T05:54:11;95941.25;;;12.06;99.97
3960;BME280;1994;48.640;8.894;2023-05-11T05:56:38;95937.34;;;12.04;99.84
3960;BME280;1994;48.640;8.894;2023-05-11T05:59:06;95938.34;;;12.03;100.00
3960;BME280;1994;48.640;8.894;2023-05-11T06:01:34;95932.53;;;11.91;100.00
3960;BME280;1994;48.640;8.894;2023-05-11T06:04:00;95939.78;;;11.89;100.00
3960;BME280;1994;48.640;8.894;2023-05-11T06:06:25;95935.75;;;12.03;100.00
3960;BME280;1994;48.640;8.894;2023-05-11T06:08:52;95939.84;;;11.94;100.00
3960;BME280;1994;48.640;8.894;2023-05-11T06:11:17;95936.72;;;11.97;100.00
3960;BME280;1994;48.640;8.894;2023-05-11T06:13:43;95931.06;;;12.00;100.00
3960;BME280;1994;48.640;8.894;2023-05-11T06:16:09;95933.81;;;11.88;100.00
3960;BME280;1994;48.640;8.894;2023-05-11T06:18:35;95940.88;;;11.93;100.00
3960;BME280;1994;48.640;8.894;2023-05-11T06:21:00;95932.09;;;11.99;100.00
3960;BME280;1994;48.640;8.894;2023-05-11T06:23:26;95934.47;;;12.05;100.00
3960;BME280;1994;48.640;8.894;2023-05-11T06:25:52;95942.31;;;12.10;99.46
3960;BME280;1994;48.640;8.894;2023-05-11T06:28:17;95934.28;;;12.12;99.95
3960;BME280;1994;48.640;8.894;2023-05-11T06:30:43;95938.28;;;11.98;99.71
3960;BME280;1994;48.640;8.894;2023-05-11T06:33:09;95939.75;;;12.15;99.43
3960;BME280;1994;48.640;8.894;2023-05-11T06:35:35;95935.44;;;12.26;99.54
3960;BME280;1994;48.640;8.894;2023-05-11T06:38:02;95935.84;;;12.49;98.69
3960;BME280;1994;48.640;8.894;2023-05-11T06:40:28;95938.28;;;12.61;95.56
3960;BME280;1994;48.640;8.894;2023-05-11T06:42:53;95934.25;;;12.75;95.25
3960;BME280;1994;48.640;8.894;2023-05-11T06:45:19;95945.47;;;12.85;93.95
3960;BME280;1994;48.640;8.894;2023-05-11T06:47:45;95939.81;;;12.57;93.05
3960;BME280;1994;48.640;8.894;2023-05-11T06:50:10;95945.44;;;12.44;92.74
3960;BME280;1994;48.640;8.894;2023-05-11T06:52:36;95942.09;;;12.48;93.18
3960;BME280;1994;48.640;8.894;2023-05-11T06:55:02;95934.09;;;12.55;94.46
3960;BME280;1994;48.640;8.894;2023-05-11T06:57:29;95946.25;;;12.49;93.60
3960;BME280;1994;48.640;8.894;2023-05-11T06:59:54;95936.19;;;12.58;93.34
3960;BME280;1994;48.640;8.894;2023-05-11T07:02:20;95939.84;;;12.62;93.52
3960;BME280;1994;48.640;8.894;2023-05-11T07:04:46;95945.03;;;12.62;93.21
3960;BME280;1994;48.640;8.894;2023-05-11T07:07:11;95937.28;;;12.67;93.51
3960;BME280;1994;48.640;8.894;2023-05-11T07:09:37;95944.03;;;12.68;92.82
3960;BME280;1994;48.640;8.894;2023-05-11T07:12:03;95948.25;;;12.74;90.75
3960;BME280;1994;48.640;8.894;2023-05-11T07:14:29;95950.41;;;12.87;89.96
3960;BME280;1994;48.640;8.894;2023-05-11T07:16:55;95944.38;;;12.81;89.94
3960;BME280;1994;48.640;8.894;2023-05-11T07:19:20;95945.75;;;12.89;89.52
3960;BME280;1994;48.640;8.894;2023-05-11T07:21:46;95956.72;;;12.96;89.14
3960;BME280;1994;48.640;8.894;2023-05-11T07:24:12;95950.09;;;12.78;89.63
3960;BME280;1994;48.640;8.894;2023-05-11T07:26:38;95949.47;;;12.98;89.33
3960;BME280;1994;48.640;8.894;2023-05-11T07:29:03;95960.41;;;13.05;87.88
3960;BME280;1994;48.640;8.894;2023-05-11T07:31:29;95957.28;;;12.98;85.77
3960;BME280;1994;48.640;8.894;2023-05-11T07:33:55;95957.84;;;13.10;86.50
3960;BME280;1994;48.640;8.894;2023-05-11T07:36:21;95953.50;;;13.25;88.12
3960;BME280;1994;48.640;8.894;2023-05-11T07:38:47;95957.91;;;13.20;87.92
3960;BME280;1994;48.640;8.894;2023-05-11T07:41:12;95959.97;;;13.23;86.49
3960;BME280;1994;48.640;8.894;2023-05-11T07:43:38;95957.84;;;13.10;86.17
3960;BME280;1994;48.640;8.894;2023-05-11T07:46:04;95952.19;;;13.28;87.56
3960;BME280;1994;48.640;8.894;2023-05-11T07:48:30;95954.84;;;13.38;86.00
3960;BME280;1994;48.640;8.894;2023-05-11T07:50:56;95953.84;;;13.44;85.40
3960;BME280;1994;48.640;8.894;2023-05-11T07:53:21;95954.31;;;13.31;86.68
3960;BME280;1994;48.640;8.894;2023-05-11T07:55:47;95959.28;;;13.37;84.75
3960;BME280;1994;48.640;8.894;2023-05-11T07:58:13;95962.41;;;13.39;85.32
3960;BME280;1994;48.640;8.894;2023-05-11T08:00:38;95951.47;;;13.37;87.68
3960;BME280;1994;48.640;8.894;2023-05-11T08:03:04;95954.91;;;13.48;86.90
3960;BME280;1994;48.640;8.894;2023-05-11T08:05:30;95950.75;;;13.52;86.86
3960;BME280;1994;48.640;8.894;2023-05-11T08:08:03;95954.41;;;13.51;84.41
3960;BME280;1994;48.640;8.894;2023-05-11T08:10:29;95952.31;;;13.53;86.35
3960;BME280;1994;48.640;8.894;2023-05-11T08:12:56;95949.72;;;13.58;85.84
3960;BME280;1994;48.640;8.894;2023-05-11T08:15:22;95954.66;;;13.49;85.28
3960;BME280;1994;48.640;8.894;2023-05-11T08:17:48;95956.00;;;13.62;85.65
3960;BME280;1994;48.640;8.894;2023-05-11T08:20:14;95958.59;;;13.72;85.70
3960;BME280;1994;48.640;8.894;2023-05-11T08:22:39;95952.63;;;13.71;86.90
3960;BME280;1994;48.640;8.894;2023-05-11T08:25:06;95951.34;;;13.79;88.12
3960;BME280;1994;48.640;8.894;2023-05-11T08:27:32;95951.59;;;13.77;86.12
3960;BME280;1994;48.640;8.894;2023-05-11T08:29:58;95948.22;;;13.77;85.58
3960;BME280;1994;48.640;8.894;2023-05-11T08:32:23;95949.78;;;13.83;86.38
3960;BME280;1994;48.640;8.894;2023-05-11T08:34:50;95959.66;;;13.71;84.89
3960;BME280;1994;48.640;8.894;2023-05-11T08:37:15;95950.81;;;13.82;86.66
3960;BME280;1994;48.640;8.894;2023-05-11T08:39:41;95946.69;;;13.86;86.65
3960;BME280;1994;48.640;8.894;2023-05-11T08:42:09;95949.84;;;14.08;86.90
3960;BME280;1994;48.640;8.894;2023-05-11T08:44:35;95955.84;;;14.08;84.78
3960;BME280;1994;48.640;8.894;2023-05-11T08:47:03;95957.13;;;14.01;84.99
3960;BME280;1994;48.640;8.894;2023-05-11T08:49:31;95955.84;;;14.08;84.89
3960;BME280;1994;48.640;8.894;2023-05-11T08:51:57;95959.47;;;14.07;84.07
3960;BME280;1994;48.640;8.894;2023-05-11T08:54:24;95954.53;;;14.01;83.86
3960;BME280;1994;48.640;8.894;2023-05-11T08:56:50;95948.75;;;13.84;83.74
3960;BME280;1994;48.640;8.894;2023-05-11T08:59:17;95957.13;;;13.96;85.02
3960;BME280;1994;48.640;8.894;2023-05-11T09:01:43;95956.59;;;14.09;87.05
3960;BME280;1994;48.640;8.894;2023-05-11T09:04:10;95958.69;;;14.07;84.28
3960;BME280;1994;48.640;8.894;2023-05-11T09:06:37;95959.75;;;14.11;83.32
3960;BME280;1994;48.640;8.894;2023-05-11T09:09:03;95956.88;;;14.12;81.48
3960;BME280;1994;48.640;8.894;2023-05-11T09:11:30;95955.09;;;14.28;83.19
3960;BME280;1994;48.640;8.894;2023-05-11T09:13:56;95952.22;;;14.19;81.07
3960;BME280;1994;48.640;8.894;2023-05-11T09:16:22;95954.06;;;14.34;79.65
3960;BME280;1994;48.640;8.894;2023-05-11T09:18:52;95952.22;;;14.29;79.55
3960;BME280;1994;48.640;8.894;2023-05-11T09:21:19;95956.13;;;14.42;80.56
3960;BME280;1994;48.640;8.894;2023-05-11T09:23:48;95958.50;;;14.53;81.28
3960;BME280;1994;48.640;8.894;2023-05-11T09:26:16;95954.31;;;14.37;77.97
3960;BME280;1994;48.640;8.894;2023-05-11T09:28:52;95954.03;;;14.54;79.47
3960;BME280;1994;48.640;8.894;2023-05-11T09:31:45;95954.56;;;14.61;80.56
3960;BME280;1994;48.640;8.894;2023-05-11T09:34:20;95954.56;;;14.71;81.02
3960;BME280;1994;48.640;8.894;2023-05-11T09:36:54;95952.97;;;14.90;79.56
3960;BME280;1994;48.640;8.894;2023-05-11T09:39:34;95958.19;;;14.85;78.67
3960;BME280;1994;48.640;8.894;2023-05-11T09:42:14;95952.97;;;14.90;76.84
3960;BME280;1994;48.640;8.894;2023-05-11T09:44:40;95952.47;;;14.83;76.49
3960;BME280;1994;48.640;8.894;2023-05-11T09:47:14;95951.91;;;14.86;76.61
3960;BME280;1994;48.640;8.894;2023-05-11T09:49:42;95950.34;;;14.95;77.14
3960;BME280;1994;48.640;8.894;2023-05-11T09:52:10;95951.91;;;14.86;73.13
3960;BME280;1994;48.640;8.894;2023-05-11T09:54:46;95948.25;;;14.97;74.87
3960;BME280;1994;48.640;8.894;2023-05-11T09:57:29;95948.78;;;14.94;74.66
3960;BME280;1994;48.640;8.894;2023-05-11T09:59:58;95952.44;;;14.93;71.92
3960;BME280;1994;48.640;8.894;2023-05-11T10:02:29;95954.78;;;14.94;71.76
3960;BME280;1994;48.640;8.894;2023-05-11T10:04:58;95949.78;;;15.03;72.73
3960;BME280;1994;48.640;8.894;2023-05-11T10:07:31;95947.41;;;15.16;74.03
3960;BME280;1994;48.640;8.894;2023-05-11T10:10:03;95948.69;;;15.24;73.89
3960;BME280;1994;48.640;8.894;2023-05-11T10:12:30;95950.56;;;15.18;71.60
3960;BME280;1994;48.640;8.894;2023-05-11T10:15:09;95941.91;;;15.23;72.36
3960;BME280;1994;48.640;8.894;2023-05-11T10:17:35;95949.22;;;15.31;74.92
3960;BME280;1994;48.640;8.894;2023-05-11T10:20:04;95950.84;;;15.02;72.77
3960;BME280;1994;48.640;8.894;2023-05-11T10:22:30;95951.41;;;14.94;74.29
3960;BME280;1994;48.640;8.894;2023-05-11T10:24:57;95952.97;;;14.80;73.06
3960;BME280;1994;48.640;8.894;2023-05-11T10:27:24;95946.47;;;14.77;71.59
3960;BME280;1994;48.640;8.894;2023-05-11T10:29:50;95945.16;;;14.85;74.33
3960;BME280;1994;48.640;8.894;2023-05-11T10:32:18;95947.25;;;14.83;75.14
3960;BME280;1994;48.640;8.894;2023-05-11T10:34:45;95948.31;;;14.67;72.32
3960;BME280;1994;48.640;8.894;2023-05-11T10:37:13;95950.13;;;14.81;74.36
3960;BME280;1994;48.640;8.894;2023-05-11T10:39:40;95949.06;;;14.77;72.95
3960;BME280;1994;48.640;8.894;2023-05-11T10:45:32;95947.28;;;14.53;72.84
3960;BME280;1994;48.640;8.894;2023-05-11T10:57:12;95943.34;;;14.55;74.89
3960;BME280;1994;48.640;8.894;2023-05-11T10:59:52;95946.75;;;14.46;76.36
3960;BME280;1994;48.640;8.894;2023-05-11T11:02:20;95943.09;;;14.42;76.19
3960;BME280;1994;48.640;8.894;2023-05-11T11:04:50;95936.59;;;14.29;76.74
3960;BME280;1994;48.640;8.894;2023-05-11T11:07:17;95933.44;;;14.17;78.07
3960;BME280;1994;48.640;8.894;2023-05-11T11:09:59;95928.50;;;14.21;79.24
3960;BME280;1994;48.640;8.894;2023-05-11T11:12:27;95941.53;;;14.36;80.63
3960;BME280;1994;48.640;8.894;2023-05-11T11:15:05;95935.78;;;14.19;78.27
3960;BME280;1994;48.640;8.894;2023-05-11T11:17:32;95933.72;;;14.21;81.33
3960;BME280;1994;48.640;8.894;2023-05-11T11:20:04;95935.28;;;14.52;82.63
3960;BME280;1994;48.640;8.894;2023-05-11T11:25:08;95938.38;;;14.74;81.89
3960;BME280;1994;48.640;8.894;2023-05-11T11:30:19;95937.31;;;14.90;78.95
3960;BME280;1994;48.640;8.894;2023-05-11T11:32:50;95934.72;;;14.75;77.70
3960;BME280;1994;48.640;8.894;2023-05-11T11:38:16;95924.22;;;15.15;80.93
3960;BME280;1994;48.640;8.894;2023-05-11T11:40:46;95924.13;;;15.40;76.04
3960;BME280;1994;48.640;8.894;2023-05-11T11:43:20;95931.56;;;15.71;76.45
3960;BME280;1994;48.640;8.894;2023-05-11T11:45:50;95925.09;;;15.59;74.23
3960;BME280;1994;48.640;8.894;2023-05-11T11:48:39;95935.41;;;15.84;73.19
3960;BME280;1994;48.640;8.894;2023-05-11T11:51:12;95927.78;;;15.92;71.93
3960;BME280;1994;48.640;8.894;2023-05-11T12:01:13;95915.56;;;15.83;68.50
3960;BME280;1994;48.640;8.894;2023-05-11T12:03:44;95916.31;;;15.88;68.69
3960;BME280;1994;48.640;8.894;2023-05-11T12:06:13;95919.09;;;16.02;67.98
3960;BME280;1994;48.640;8.894;2023-05-11T12:08:41;95919.50;;;16.19;70.77
3960;BME280;1994;48.640;8.894;2023-05-11T12:11:07;95910.19;;;16.36;69.93
3960;BME280;1994;48.640;8.894;2023-05-11T12:13:34;95909.69;;;16.39;68.55
3960;BME280;1994;48.640;8.894;2023-05-11T12:16:16;95909.50;;;16.26;65.78
3960;BME280;1994;48.640;8.894;2023-05-11T12:18:57;95913.59;;;16.37;69.03
3960;BME280;1994;48.640;8.894;2023-05-11T12:21:26;95912.53;;;16.43;66.70
3960;BME280;1994;48.640;8.894;2023-05-11T12:23:56;95914.50;;;16.22;67.66
3960;BME280;1994;48.640;8.894;2023-05-11T12:26:24;95907.97;;;16.25;67.43
3960;BME280;1994;48.640;8.894;2023-05-11T12:29:04;95903.06;;;15.80;69.51
3960;BME280;1994;48.640;8.894;2023-05-11T12:31:37;95903.09;;;15.75;68.97
3960;BME280;1994;48.640;8.894;2023-05-11T12:34:04;95902.63;;;16.01;69.25
3960;BME280;1994;48.640;8.894;2023-05-11T12:36:30;95900.00;;;16.06;67.92
3960;BME280;1994;48.640;8.894;2023-05-11T12:38:56;95897.31;;;15.78;67.80
3960;BME280;1994;48.640;8.894;2023-05-11T12:41:22;95903.75;;;15.90;66.43
3960;BME280;1994;48.640;8.894;2023-05-11T12:43:49;95891.38;;;16.06;67.69
3960;BME280;1994;48.640;8.894;2023-05-11T12:46:18;95895.59;;;16.02;67.00
3960;BME280;1994;48.640;8.894;2023-05-11T12:48:49;95897.28;;;15.83;67.68
3960;BME280;1994;48.640;8.894;2023-05-11T12:51:48;95888.00;;;15.62;68.42
3960;BME280;1994;48.640;8.894;2023-05-11T12:54:37;95891.50;;;15.91;64.38
3960;BME280;1994;48.640;8.894;2023-05-11T12:57:06;95895.06;;;16.00;66.30
3960;BME280;1994;48.640;8.894;2023-05-11T12:59:40;95885.00;;;16.17;66.28
3960;BME280;1994;48.640;8.894;2023-05-11T13:02:17;95883.59;;;16.29;64.97
3960;BME280;1994;48.640;8.894;2023-05-11T13:04:45;95881.50;;;16.31;64.65
3960;BME280;1994;48.640;8.894;2023-05-11T13:07:13;95873.78;;;16.50;64.00
3960;BME280;1994;48.640;8.894;2023-05-11T13:09:39;95878.81;;;16.70;62.66
3960;BME280;1994;48.640;8.894;2023-05-11T13:12:16;95874.59;;;16.74;63.02
3960;BME280;1994;48.640;8.894;2023-05-11T13:14:44;95860.34;;;16.85;62.52
3960;BME280;1994;48.640;8.894;2023-05-11T13:17:10;95870.66;;;16.48;63.64
3960;BME280;1994;48.640;8.894;2023-05-11T13:19:36;95872.63;;;15.99;64.21
3960;BME280;1994;48.640;8.894;2023-05-11T13:22:04;95863.00;;;16.23;65.40
3960;BME280;1994;48.640;8.894;2023-05-11T13:24:31;95865.22;;;16.44;64.67
3960;BME280;1994;48.640;8.894;2023-05-11T13:26:58;95864.34;;;16.20;64.74
3960;BME280;1994;48.640;8.894;2023-05-11T13:29:24;95869.69;;;16.39;64.85
3960;BME280;1994;48.640;8.894;2023-05-11T13:31:52;95860.16;;;16.53;61.01
3960;BME280;1994;48.640;8.894;2023-05-11T13:34:19;95856.34;;;16.69;62.01
3960;BME280;1994;48.640;8.894;2023-05-11T13:36:45;95866.56;;;16.65;63.45
3960;BME280;1994;48.640;8.894;2023-05-11T13:39:11;95861.53;;;16.74;62.48
3960;BME280;1994;48.640;8.894;2023-05-11T13:41:37;95860.47;;;16.75;62.39
3960;BME280;1994;48.640;8.894;2023-05-11T13:44:03;95859.84;;;17.06;63.11
3960;BME280;1994;48.640;8.894;2023-05-11T13:46:28;95851.34;;;16.96;60.10
3960;BME280;1994;48.640;8.894;2023-05-11T13:48:54;95855.50;;;16.97;58.98
3960;BME280;1994;48.640;8.894;2023-05-11T13:51:21;95859.56;;;17.08;61.61
3960;BME280;1994;48.640;8.894;2023-05-11T13:53:47;95852.94;;;17.15;59.11
3960;BME280;1994;48.640;8.894;2023-05-11T13:56:13;95847.97;;;17.14;61.93
3960;BME280;1994;48.640;8.894;2023-05-11T13:58:39;95851.34;;;16.72;62.50
3960;BME280;1994;48.640;8.894;2023-05-11T14:01:05;95855.44;;;17.02;60.59
3960;BME280;1994;48.640;8.894;2023-05-11T14:03:31;95852.78;;;17.07;59.06
3960;BME280;1994;48.640;8.894;2023-05-11T14:05:57;95861.16;;;17.04;60.51